sensor_id;sensor_type;location;lat;lon;timestamp;temperature;humidity
13205;DHT22;6667;52.634;9.226;2023-04-15T07:55:15;7.80;99.90
13205;DHT22;6667;52.634;9.226;2023-04-15T07:57:44;7.80;99.90
13205;DHT22;6667;52.634;9.226;2023-04-15T08:00:12;7.90;99.90
13205;DHT22;6667;52.634;9.226;2023-04-15T08:02:40;7.90;99.90
13205;DHT22;6667;52.634;9.226;2023-04-15T08:05:08;7.90;99.90
13205;DHT22;6667;52.634;9.226;2023-04-15T08:07:35;7.90;99.90
13205;DHT22;6667;52.634;9.226;2023-04-15T08:10:03;7.90;99.90
13205;DHT22;6667;52.634;9.226;2023-04-15T08:12:31;7.90;99.90
13205;DHT22;6667;52.634;9.226;2023-04-15T08:14:58;8.00;99.90
13205;DHT22;6667;52.634;9.226;2023-04-15T08:17:25;8.10;99.90
13205;DHT22;6667;52.634;9.226;2023-04-15T08:19:52;8.00;99.90
13205;DHT22;6667;52.634;9.226;2023-04-15T08:22:19;8.00;99.90
13205;DHT22;6667;52.634;9.226;2023-04-15T08:24:45;8.00;99.90
13205;DHT22;6667;52.634;9.226;2023-04-15T08:27:12;8.00;99.90
13205;DHT22;6667;52.634;9.226;2023-04-15T08:29:40;8.00;99.90
13205;DHT22;6667;52.634;9.226;2023-04-15T08:32:07;8.10;99.90
13205;DHT22;6667;52.634;9.226;2023-04-15T08:34:34;8.00;99.90
13205;DHT22;6667;52.634;9.226;2023-04-15T08:37:01;8.10;99.90
13205;DHT22;6667;52.634;9.226;2023-04-15T08:39:27;8.10;99.90
13205;DHT22;6667;52.634;9.226;2023-04-15T08:41:58;8.10;99.90
13205;DHT22;6667;52.634;9.226;2023-04-15T08:44:28;8.20;99.90
13205;DHT22;6667;52.634;9.226;2023-04-15T08:46:58;8.20;99.90
13205;DHT22;6667;52.634;9.226;2023-04-15T08:49:26;8.20;99.90
13205;DHT22;6667;52.634;9.226;2023-04-15T08:51:54;8.20;99.90
13205;DHT22;6667;52.634;9.226;2023-04-15T08:54:21;8.20;99.90
13205;DHT22;6667;52.634;9.226;2023-04-15T08:56:49;8.20;99.90
13205;DHT22;6667;52.634;9.226;2023-04-15T08:59:15;8.30;99.90
13205;DHT22;6667;52.634;9.226;2023-04-15T09:01:42;8.20;99.90
13205;DHT22;6667;52.634;9.226;2023-04-15T09:04:10;8.20;99.90
13205;DHT22;6667;52.634;9.226;2023-04-15T09:06:38;8.20;99.90
13205;DHT22;6667;52.634;9.226;2023-04-15T09:09:05;8.20;99.90
13205;DHT22;6667;52.634;9.226;2023-04-15T09:11:32;8.20;99.90
13205;DHT22;6667;52.634;9.226;2023-04-15T09:13:59;8.30;99.90
13205;DHT22;6667;52.634;9.226;2023-04-15T09:16:26;8.30;99.90
13205;DHT22;6667;52.634;9.226;2023-04-15T09:18:53;8.30;99.90
13205;DHT22;6667;52.634;9.226;2023-04-15T09:21:21;8.30;99.90
13205;DHT22;6667;52.634;9.226;2023-04-15T09:23:54;8.30;99.90
13205;DHT22;6667;52.634;9.226;2023-04-15T09:26:30;8.40;99.90
13205;DHT22;6667;52.634;9.226;2023-04-15T09:29:03;8.30;99.90
13205;DHT22;6667;52.634;9.226;2023-04-15T09:31:30;8.30;99.90
13205;DHT22;6667;52.634;9.226;2023-04-15T09:33:57;8.40;99.90
13205;DHT22;6667;52.634;9.226;2023-04-15T09:36:25;8.40;99.90
13205;DHT22;6667;52.634;9.226;2023-04-15T09:38:55;8.40;99.90
13205;DHT22;6667;52.634;9.226;2023-04-15T09:41:21;8.40;99.90
13205;DHT22;6667;52.634;9.226;2023-04-15T09:43:48;8.40;99.90
13205;DHT22;6667;52.634;9.226;2023-04-15T09:46:15;8.50;99.90
13205;DHT22;6667;52.634;9.226;2023-04-15T09:48:42;8.50;99.90
13205;DHT22;6667;52.634;9.226;2023-04-15T09:51:08;8.50;99.90
13205;DHT22;6667;52.634;9.226;2023-04-15T09:53:37;8.50;99.90
13205;DHT22;6667;52.634;9.226;2023-04-15T09:56:04;8.60;99.90
13205;DHT22;6667;52.634;9.226;2023-04-15T09:58:33;8.50;99.90
13205;DHT22;6667;52.634;9.226;2023-04-15T10:01:03;8.60;99.90
13205;DHT22;6667;52.634;9.226;2023-04-15T10:03:32;8.60;99.90
13205;DHT22;6667;52.634;9.226;2023-04-15T10:06:00;8.60;99.90
13205;DHT22;6667;52.634;9.226;2023-04-15T10:08:29;8.70;99.90
13205;DHT22;6667;52.634;9.226;2023-04-15T10:10:58;8.70;99.90
13205;DHT22;6667;52.634;9.226;2023-04-15T10:13:27;8.80;99.90
13205;DHT22;6667;52.634;9.226;2023-04-15T10:15:59;8.80;99.90
13205;DHT22;6667;52.634;9.226;2023-04-15T10:18:27;8.80;99.90
13205;DHT22;6667;52.634;9.226;2023-04-15T10:20:54;8.90;99.90
13205;DHT22;6667;52.634;9.226;2023-04-15T10:23:21;8.90;99.90
13205;DHT22;6667;52.634;9.226;2023-04-15T10:25:51;8.90;99.90
13205;DHT22;6667;52.634;9.226;2023-04-15T10:28:19;8.90;99.90
13205;DHT22;6667;52.634;9.226;2023-04-15T10:30:47;8.90;99.90
13205;DHT22;6667;52.634;9.226;2023-04-15T10:33:16;9.00;99.90
13205;DHT22;6667;52.634;9.226;2023-04-15T10:35:46;9.00;99.90
13205;DHT22;6667;52.634;9.226;2023-04-15T10:38:33;8.90;99.90
13205;DHT22;6667;52.634;9.226;2023-04-15T10:41:17;9.00;99.90
13205;DHT22;6667;52.634;9.226;2023-04-15T10:43:50;9.10;99.90
13205;DHT22;6667;52.634;9.226;2023-04-15T10:46:21;9.10;99.90
13205;DHT22;6667;52.634;9.226;2023-04-15T10:48:50;9.10;99.90
13205;DHT22;6667;52.634;9.226;2023-04-15T10:51:26;9.10;99.90
13205;DHT22;6667;52.634;9.226;2023-04-15T10:53:56;9.10;99.90
13205;DHT22;6667;52.634;9.226;2023-04-15T10:56:24;9.10;99.90
13205;DHT22;6667;52.634;9.226;2023-04-15T10:58:52;9.10;99.90
13205;DHT22;6667;52.634;9.226;2023-04-15T11:01:19;9.10;99.90
13205;DHT22;6667;52.634;9.226;2023-04-15T11:03:48;9.20;99.90
13205;DHT22;6667;52.634;9.226;2023-04-15T11:06:15;9.10;99.90
13205;DHT22;6667;52.634;9.226;2023-04-15T11:08:58;9.20;99.90
13205;DHT22;6667;52.634;9.226;2023-04-15T11:12:04;9.20;99.90
13205;DHT22;6667;52.634;9.226;2023-04-15T11:14:33;9.20;99.90
13205;DHT22;6667;52.634;9.226;2023-04-15T11:17:00;9.20;99.90
13205;DHT22;6667;52.634;9.226;2023-04-15T11:19:35;9.20;99.90
13205;DHT22;6667;52.634;9.226;2023-04-15T11:22:06;9.30;99.90
13205;DHT22;6667;52.634;9.226;2023-04-15T11:24:33;9.30;99.90
13205;DHT22;6667;52.634;9.226;2023-04-15T11:27:00;9.30;99.90
13205;DHT22;6667;52.634;9.226;2023-04-15T11:29:28;9.30;99.90
13205;DHT22;6667;52.634;9.226;2023-04-15T11:32:04;9.40;99.90
13205;DHT22;6667;52.634;9.226;2023-04-15T11:34:31;9.40;99.90
13205;DHT22;6667;52.634;9.226;2023-04-15T11:36:58;9.40;99.90
13205;DHT22;6667;52.634;9.226;2023-04-15T11:39:25;9.40;99.90
13205;DHT22;6667;52.634;9.226;2023-04-15T11:41:54;9.40;99.90
13205;DHT22;6667;52.634;9.226;2023-04-15T11:44:20;9.50;99.90
13205;DHT22;6667;52.634;9.226;2023-04-15T11:46:47;9.50;99.90
13205;DHT22;6667;52.634;9.226;2023-04-15T11:49:27;9.50;99.90
13205;DHT22;6667;52.634;9.226;2023-04-15T11:51:53;9.60;99.90
13205;DHT22;6667;52.634;9.226;2023-04-15T11:54:20;9.60;99.90
13205;DHT22;6667;52.634;9.226;2023-04-15T11:56:49;9.70;99.90
13205;DHT22;6667;52.634;9.226;2023-04-15T11:59:16;9.70;99.90
13205;DHT22;6667;52.634;9.226;2023-04-15T12:01:44;9.60;99.90
13205;DHT22;6667;52.634;9.226;2023-04-15T12:04:12;9.70;99.90
13205;DHT22;6667;52.634;9.226;2023-04-15T12:06:41;9.70;99.90
13205;DHT22;6667;52.634;9.226;2023-04-15T12:09:09;9.70;99.90
13205;DHT22;6667;52.634;9.226;2023-04-15T12:11:42;9.70;99.90
13205;DHT22;6667;52.634;9.226;2023-04-15T12:14:11;9.70;99.90
13205;DHT22;6667;52.634;9.226;2023-04-15T12:16:40;9.80;99.90
13205;DHT22;6667;52.634;9.226;2023-04-15T12:19:10;9.70;99.90
13205;DHT22;6667;52.634;9.226;2023-04-15T12:21:39;9.70;99.90
13205;DHT22;6667;52.634;9.226;2023-04-15T12:24:09;9.80;99.90
13205;DHT22;6667;52.634;9.226;2023-04-15T12:26:43;9.90;99.90
13205;DHT22;6667;52.634;9.226;2023-04-15T12:29:11;9.80;99.90
13205;DHT22;6667;52.634;9.226;2023-04-15T12:31:47;9.80;99.90
13205;DHT22;6667;52.634;9.226;2023-04-15T12:34:15;9.90;99.90
13205;DHT22;6667;52.634;9.226;2023-04-15T12:36:42;9.90;99.90
13205;DHT22;6667;52.634;9.226;2023-04-15T12:39:10;9.90;99.90
13205;DHT22;6667;52.634;9.226;2023-04-15T12:41:36;9.90;99.90
13205;DHT22;6667;52.634;9.226;2023-04-15T12:44:03;9.90;99.90
13205;DHT22;6667;52.634;9.226;2023-04-15T12:46:30;10.00;99.90
13205;DHT22;6667;52.634;9.226;2023-04-15T12:48:57;10.00;99.90
13205;DHT22;6667;52.634;9.226;2023-04-15T12:51:23;9.90;99.90
13205;DHT22;6667;52.634;9.226;2023-04-15T12:53:51;10.00;99.90
13205;DHT22;6667;52.634;9.226;2023-04-15T12:56:19;10.00;99.90
13205;DHT22;6667;52.634;9.226;2023-04-15T12:58:46;10.00;99.90
13205;DHT22;6667;52.634;9.226;2023-04-15T13:01:13;10.00;99.90
13205;DHT22;6667;52.634;9.226;2023-04-15T13:03:40;10.00;99.90
13205;DHT22;6667;52.634;9.226;2023-04-15T13:06:06;10.00;99.90
13205;DHT22;6667;52.634;9.226;2023-04-15T13:08:33;10.00;99.90
13205;DHT22;6667;52.634;9.226;2023-04-15T13:11:00;10.00;99.90
13205;DHT22;6667;52.634;9.226;2023-04-15T13:13:28;10.10;99.90
13205;DHT22;6667;52.634;9.226;2023-04-15T13:15:56;10.10;99.90
13205;DHT22;6667;52.634;9.226;2023-04-15T13:18:23;10.20;99.90
13205;DHT22;6667;52.634;9.226;2023-04-15T13:20:49;10.20;99.90
13205;DHT22;6667;52.634;9.226;2023-04-15T13:23:16;10.20;99.90
13205;DHT22;6667;52.634;9.226;2023-04-15T13:25:43;10.30;99.90
13205;DHT22;6667;52.634;9.226;2023-04-15T13:28:11;10.40;99.90
13205;DHT22;6667;52.634;9.226;2023-04-15T13:30:39;10.40;99.90
13205;DHT22;6667;52.634;9.226;2023-04-15T13:33:05;10.50;99.90
13205;DHT22;6667;52.634;9.226;2023-04-15T13:35:32;10.60;99.90
13205;DHT22;6667;52.634;9.226;2023-04-15T13:37:59;10.70;99.90
13205;DHT22;6667;52.634;9.226;2023-04-15T13:40:25;10.80;99.90
13205;DHT22;6667;52.634;9.226;2023-04-15T13:42:52;11.00;99.90
13205;DHT22;6667;52.634;9.226;2023-04-15T13:45:19;11.10;99.90
13205;DHT22;6667;52.634;9.226;2023-04-15T13:47:47;11.10;99.90
13205;DHT22;6667;52.634;9.226;2023-04-15T13:50:13;11.10;99.90
13205;DHT22;6667;52.634;9.226;2023-04-15T13:52:40;11.20;99.90
13205;DHT22;6667;52.634;9.226;2023-04-15T13:55:07;11.10;99.90
13205;DHT22;6667;52.634;9.226;2023-04-15T13:57:34;11.20;99.90
13205;DHT22;6667;52.634;9.226;2023-04-15T14:00:01;11.40;99.90
13205;DHT22;6667;52.634;9.226;2023-04-15T14:02:28;11.30;99.90
13205;DHT22;6667;52.634;9.226;2023-04-15T14:04:56;11.30;99.90
13205;DHT22;6667;52.634;9.226;2023-04-15T14:07:23;11.30;99.90
13205;DHT22;6667;52.634;9.226;2023-04-15T14:09:50;11.30;99.90
13205;DHT22;6667;52.634;9.226;2023-04-15T14:12:16;11.30;99.90
13205;DHT22;6667;52.634;9.226;2023-04-15T14:14:43;11.40;99.90
13205;DHT22;6667;52.634;9.226;2023-04-15T14:17:11;11.40;99.90
13205;DHT22;6667;52.634;9.226;2023-04-15T14:19:37;11.50;99.90
13205;DHT22;6667;52.634;9.226;2023-04-15T14:22:05;11.50;99.90
13205;DHT22;6667;52.634;9.226;2023-04-15T14:24:32;11.50;99.90
13205;DHT22;6667;52.634;9.226;2023-04-15T14:26:59;11.50;99.90
13205;DHT22;6667;52.634;9.226;2023-04-15T14:29:26;11.40;99.90
13205;DHT22;6667;52.634;9.226;2023-04-15T14:31:53;11.40;99.90
13205;DHT22;6667;52.634;9.226;2023-04-15T14:34:21;11.30;99.90
13205;DHT22;6667;52.634;9.226;2023-04-15T14:36:49;11.40;99.90
13205;DHT22;6667;52.634;9.226;2023-04-15T14:39:18;11.50;99.90
13205;DHT22;6667;52.634;9.226;2023-04-15T14:41:45;11.50;99.90
13205;DHT22;6667;52.634;9.226;2023-04-15T14:44:11;11.50;99.90
13205;DHT22;6667;52.634;9.226;2023-04-15T14:46:38;11.50;99.90
13205;DHT22;6667;52.634;9.226;2023-04-15T14:49:06;11.60;99.90
13205;DHT22;6667;52.634;9.226;2023-04-15T14:51:33;11.60;99.90
13205;DHT22;6667;52.634;9.226;2023-04-15T14:53:59;11.70;99.90
13205;DHT22;6667;52.634;9.226;2023-04-15T14:56:27;11.70;99.90
13205;DHT22;6667;52.634;9.226;2023-04-15T14:58:54;11.70;99.90
13205;DHT22;6667;52.634;9.226;2023-04-15T15:01:20;11.70;99.90
13205;DHT22;6667;52.634;9.226;2023-04-15T15:03:48;11.80;99.90
13205;DHT22;6667;52.634;9.226;2023-04-15T15:06:15;11.80;99.90
13205;DHT22;6667;52.634;9.226;2023-04-15T15:08:41;11.90;99.90
13205;DHT22;6667;52.634;9.226;2023-04-15T15:11:08;12.00;99.90
13205;DHT22;6667;52.634;9.226;2023-04-15T15:13:36;12.10;99.90
13205;DHT22;6667;52.634;9.226;2023-04-15T15:16:03;12.20;99.90
13205;DHT22;6667;52.634;9.226;2023-04-15T15:18:30;12.30;99.90
13205;DHT22;6667;52.634;9.226;2023-04-15T15:20:56;12.40;99.90
13205;DHT22;6667;52.634;9.226;2023-04-15T15:23:23;12.40;99.90
13205;DHT22;6667;52.634;9.226;2023-04-15T15:25:50;12.50;99.90
13205;DHT22;6667;52.634;9.226;2023-04-15T15:28:16;12.70;99.90
13205;DHT22;6667;52.634;9.226;2023-04-15T15:30:44;12.80;99.90
13205;DHT22;6667;52.634;9.226;2023-04-15T15:33:11;12.70;99.90
13205;DHT22;6667;52.634;9.226;2023-04-15T15:35:38;12.80;99.90
13205;DHT22;6667;52.634;9.226;2023-04-15T15:38:05;12.90;99.90
13205;DHT22;6667;52.634;9.226;2023-04-15T15:40:31;12.90;99.90
13205;DHT22;6667;52.634;9.226;2023-04-15T15:42:58;12.90;99.90
13205;DHT22;6667;52.634;9.226;2023-04-15T15:45:25;12.90;99.90
13205;DHT22;6667;52.634;9.226;2023-04-15T15:47:53;12.90;99.90
13205;DHT22;6667;52.634;9.226;2023-04-15T15:50:21;13.00;99.90
13205;DHT22;6667;52.634;9.226;2023-04-15T15:52:48;13.00;99.90
13205;DHT22;6667;52.634;9.226;2023-04-15T15:55:14;13.00;99.90
13205;DHT22;6667;52.634;9.226;2023-04-15T15:57:41;13.00;99.90
13205;DHT22;6667;52.634;9.226;2023-04-15T16:00:09;13.00;99.90
13205;DHT22;6667;52.634;9.226;2023-04-15T16:02:36;12.80;99.90
13205;DHT22;6667;52.634;9.226;2023-04-15T16:05:04;12.80;99.90
13205;DHT22;6667;52.634;9.226;2023-04-15T16:07:31;12.80;99.90
13205;DHT22;6667;52.634;9.226;2023-04-15T16:09:58;12.70;99.90
13205;DHT22;6667;52.634;9.226;2023-04-15T16:12:24;12.70;99.90
13205;DHT22;6667;52.634;9.226;2023-04-15T16:14:52;12.70;99.90
13205;DHT22;6667;52.634;9.226;2023-04-15T16:17:18;12.60;99.90
13205;DHT22;6667;52.634;9.226;2023-04-15T16:19:45;12.50;99.90
13205;DHT22;6667;52.634;9.226;2023-04-15T16:22:13;12.40;99.90
13205;DHT22;6667;52.634;9.226;2023-04-15T16:24:40;12.40;99.90
13205;DHT22;6667;52.634;9.226;2023-04-15T16:27:06;12.30;99.90
13205;DHT22;6667;52.634;9.226;2023-04-15T16:29:38;12.30;99.90
13205;DHT22;6667;52.634;9.226;2023-04-15T16:32:05;12.20;99.90
13205;DHT22;6667;52.634;9.226;2023-04-15T16:34:32;12.20;99.90
13205;DHT22;6667;52.634;9.226;2023-04-15T16:36:59;12.30;99.90
13205;DHT22;6667;52.634;9.226;2023-04-15T16:39:28;12.20;99.90
13205;DHT22;6667;52.634;9.226;2023-04-15T16:41:54;12.20;99.90
13205;DHT22;6667;52.634;9.226;2023-04-15T16:44:21;12.10;99.90
13205;DHT22;6667;52.634;9.226;2023-04-15T16:46:48;12.10;99.90
13205;DHT22;6667;52.634;9.226;2023-04-15T16:49:15;12.10;99.90
13205;DHT22;6667;52.634;9.226;2023-04-15T16:51:42;12.10;99.90
13205;DHT22;6667;52.634;9.226;2023-04-15T16:54:08;12.10;99.90
13205;DHT22;6667;52.634;9.226;2023-04-15T16:56:36;12.10;99.90
13205;DHT22;6667;52.634;9.226;2023-04-15T16:59:03;12.10;99.90
13205;DHT22;6667;52.634;9.226;2023-04-15T17:01:32;12.10;99.90
13205;DHT22;6667;52.634;9.226;2023-04-15T17:03:59;12.20;99.90
13205;DHT22;6667;52.634;9.226;2023-04-15T17:06:25;12.20;99.90
13205;DHT22;6667;52.634;9.226;2023-04-15T17:08:52;12.10;99.90
13205;DHT22;6667;52.634;9.226;2023-04-15T17:11:19;12.20;99.90
13205;DHT22;6667;52.634;9.226;2023-04-15T17:13:47;12.10;99.90
13205;DHT22;6667;52.634;9.226;2023-04-15T17:16:13;12.20;99.90
13205;DHT22;6667;52.634;9.226;2023-04-15T17:18:40;12.10;99.90
13205;DHT22;6667;52.634;9.226;2023-04-15T17:21:07;12.10;99.90
13205;DHT22;6667;52.634;9.226;2023-04-15T17:23:33;12.10;99.90
13205;DHT22;6667;52.634;9.226;2023-04-15T17:26:00;12.10;99.90
13205;DHT22;6667;52.634;9.226;2023-04-15T17:28:27;12.10;99.90
13205;DHT22;6667;52.634;9.226;2023-04-15T17:30:55;12.10;99.90
13205;DHT22;6667;52.634;9.226;2023-04-15T17:33:22;12.10;99.90
13205;DHT22;6667;52.634;9.226;2023-04-15T17:35:48;12.10;99.90
13205;DHT22;6667;52.634;9.226;2023-04-15T17:38:15;12.10;99.90
13205;DHT22;6667;52.634;9.226;2023-04-15T17:40:41;12.10;99.90
13205;DHT22;6667;52.634;9.226;2023-04-15T17:43:08;12.10;99.90
13205;DHT22;6667;52.634;9.226;2023-04-15T17:45:35;12.10;99.90
13205;DHT22;6667;52.634;9.226;2023-04-15T17:48:03;12.10;99.90
13205;DHT22;6667;52.634;9.226;2023-04-15T17:50:29;12.10;99.90
13205;DHT22;6667;52.634;9.226;2023-04-15T17:52:56;12.10;99.90
13205;DHT22;6667;52.634;9.226;2023-04-15T17:55:22;12.10;99.90
13205;DHT22;6667;52.634;9.226;2023-04-15T17:57:49;12.00;99.90
13205;DHT22;6667;52.634;9.226;2023-04-15T18:00:16;12.00;99.90
13205;DHT22;6667;52.634;9.226;2023-04-15T18:02:42;12.00;99.90
13205;DHT22;6667;52.634;9.226;2023-04-15T18:05:10;11.90;99.90
13205;DHT22;6667;52.634;9.226;2023-04-15T18:07:37;11.90;99.90
13205;DHT22;6667;52.634;9.226;2023-04-15T18:10:05;11.90;99.90
13205;DHT22;6667;52.634;9.226;2023-04-15T18:12:32;11.80;99.90
13205;DHT22;6667;52.634;9.226;2023-04-15T18:14:59;11.80;99.90
13205;DHT22;6667;52.634;9.226;2023-04-15T18:17:26;11.80;99.90
13205;DHT22;6667;52.634;9.226;2023-04-15T18:19:54;11.70;99.90
13205;DHT22;6667;52.634;9.226;2023-04-15T18:22:22;11.70;99.90
13205;DHT22;6667;52.634;9.226;2023-04-15T18:24:49;11.70;99.90
13205;DHT22;6667;52.634;9.226;2023-04-15T18:27:17;11.70;99.90
13205;DHT22;6667;52.634;9.226;2023-04-15T18:29:45;11.70;99.90
13205;DHT22;6667;52.634;9.226;2023-04-15T18:32:12;11.70;99.90
13205;DHT22;6667;52.634;9.226;2023-04-15T18:34:39;11.60;99.90
13205;DHT22;6667;52.634;9.226;2023-04-15T18:37:07;11.60;99.90
13205;DHT22;6667;52.634;9.226;2023-04-15T18:39:36;11.60;99.90
13205;DHT22;6667;52.634;9.226;2023-04-15T18:42:03;11.50;99.90
13205;DHT22;6667;52.634;9.226;2023-04-15T18:44:30;11.50;99.90
13205;DHT22;6667;52.634;9.226;2023-04-15T18:46:58;11.50;99.90
13205;DHT22;6667;52.634;9.226;2023-04-15T18:49:25;11.50;99.90
13205;DHT22;6667;52.634;9.226;2023-04-15T18:51:52;11.50;99.90
13205;DHT22;6667;52.634;9.226;2023-04-15T18:54:20;11.50;99.90
13205;DHT22;6667;52.634;9.226;2023-04-15T18:56:49;11.40;99.90
13205;DHT22;6667;52.634;9.226;2023-04-15T18:59:16;11.40;99.90
13205;DHT22;6667;52.634;9.226;2023-04-15T19:01:44;11.40;99.90
13205;DHT22;6667;52.634;9.226;2023-04-15T19:04:11;11.40;99.90
13205;DHT22;6667;52.634;9.226;2023-04-15T19:06:39;11.30;99.90
13205;DHT22;6667;52.634;9.226;2023-04-15T19:09:06;11.30;99.90
13205;DHT22;6667;52.634;9.226;2023-04-15T19:11:33;11.20;99.90
13205;DHT22;6667;52.634;9.226;2023-04-15T19:14:02;11.20;99.90
13205;DHT22;6667;52.634;9.226;2023-04-15T19:16:29;11.20;99.90
13205;DHT22;6667;52.634;9.226;2023-04-15T19:18:56;11.20;99.90
13205;DHT22;6667;52.634;9.226;2023-04-15T19:21:23;11.20;99.90
13205;DHT22;6667;52.634;9.226;2023-04-15T19:23:51;11.10;99.90
13205;DHT22;6667;52.634;9.226;2023-04-15T19:26:18;11.20;99.90
13205;DHT22;6667;52.634;9.226;2023-04-15T19:28:45;11.10;99.90
13205;DHT22;6667;52.634;9.226;2023-04-15T19:31:14;11.10;99.90
13205;DHT22;6667;52.634;9.226;2023-04-15T19:33:41;11.10;99.90
13205;DHT22;6667;52.634;9.226;2023-04-15T19:36:09;11.10;99.90
13205;DHT22;6667;52.634;9.226;2023-04-15T19:38:37;11.10;99.90
13205;DHT22;6667;52.634;9.226;2023-04-15T19:41:04;11.10;99.90
13205;DHT22;6667;52.634;9.226;2023-04-15T19:43:31;11.10;99.90
13205;DHT22;6667;52.634;9.226;2023-04-15T19:45:59;11.00;99.90
13205;DHT22;6667;52.634;9.226;2023-04-15T19:48:27;10.90;99.90
13205;DHT22;6667;52.634;9.226;2023-04-15T19:50:56;10.90;99.90
13205;DHT22;6667;52.634;9.226;2023-04-15T19:53:23;10.80;99.90
13205;DHT22;6667;52.634;9.226;2023-04-15T19:55:51;10.80;99.90
13205;DHT22;6667;52.634;9.226;2023-04-15T19:58:18;10.80;99.90
13205;DHT22;6667;52.634;9.226;2023-04-15T20:00:45;10.80;99.90
13205;DHT22;6667;52.634;9.226;2023-04-15T20:03:13;10.70;99.90
13205;DHT22;6667;52.634;9.226;2023-04-15T20:05:42;10.70;99.90
13205;DHT22;6667;52.634;9.226;2023-04-15T20:08:09;10.60;99.90
13205;DHT22;6667;52.634;9.226;2023-04-15T20:10:36;10.50;99.90
13205;DHT22;6667;52.634;9.226;2023-04-15T20:13:03;10.50;99.90
13205;DHT22;6667;52.634;9.226;2023-04-15T20:15:31;10.40;99.90
13205;DHT22;6667;52.634;9.226;2023-04-15T20:17:58;10.40;99.90
13205;DHT22;6667;52.634;9.226;2023-04-15T20:20:25;10.40;99.90
13205;DHT22;6667;52.634;9.226;2023-04-15T20:22:54;10.30;99.90
13205;DHT22;6667;52.634;9.226;2023-04-15T20:25:21;10.30;99.90
13205;DHT22;6667;52.634;9.226;2023-04-15T20:27:48;10.30;99.90
13205;DHT22;6667;52.634;9.226;2023-04-15T20:30:16;10.20;99.90
13205;DHT22;6667;52.634;9.226;2023-04-15T20:32:43;10.20;99.90
13205;DHT22;6667;52.634;9.226;2023-04-15T20:35:10;10.10;99.90
13205;DHT22;6667;52.634;9.226;2023-04-15T20:37:38;10.10;99.90
13205;DHT22;6667;52.634;9.226;2023-04-15T20:40:08;10.10;99.90
13205;DHT22;6667;52.634;9.226;2023-04-15T20:42:35;10.10;99.90
13205;DHT22;6667;52.634;9.226;2023-04-15T20:45:03;10.10;99.90
13205;DHT22;6667;52.634;9.226;2023-04-15T20:47:31;10.10;99.90
13205;DHT22;6667;52.634;9.226;2023-04-15T20:49:58;10.00;99.90
13205;DHT22;6667;52.634;9.226;2023-04-15T20:52:26;10.00;99.90
13205;DHT22;6667;52.634;9.226;2023-04-15T20:54:53;10.00;99.90
13205;DHT22;6667;52.634;9.226;2023-04-15T20:57:21;10.00;99.90
13205;DHT22;6667;52.634;9.226;2023-04-15T20:59:49;10.00;99.90
13205;DHT22;6667;52.634;9.226;2023-04-15T21:02:16;10.00;99.90
13205;DHT22;6667;52.634;9.226;2023-04-15T21:04:43;10.00;99.90
13205;DHT22;6667;52.634;9.226;2023-04-15T21:07:11;10.00;99.90
13205;DHT22;6667;52.634;9.226;2023-04-15T21:09:39;10.00;99.90
13205;DHT22;6667;52.634;9.226;2023-04-15T21:12:08;10.00;99.90
13205;DHT22;6667;52.634;9.226;2023-04-15T21:14:37;10.00;99.90
13205;DHT22;6667;52.634;9.226;2023-04-15T21:17:04;10.00;99.90
13205;DHT22;6667;52.634;9.226;2023-04-15T21:19:32;10.00;99.90
13205;DHT22;6667;52.634;9.226;2023-04-15T21:22:00;10.00;99.90
13205;DHT22;6667;52.634;9.226;2023-04-15T21:24:27;10.10;99.90
13205;DHT22;6667;52.634;9.226;2023-04-15T21:26:55;10.10;99.90
13205;DHT22;6667;52.634;9.226;2023-04-15T21:29:22;10.10;99.90
13205;DHT22;6667;52.634;9.226;2023-04-15T21:31:51;10.10;99.90
13205;DHT22;6667;52.634;9.226;2023-04-15T21:34:18;10.10;99.90
13205;DHT22;6667;52.634;9.226;2023-04-15T21:36:46;10.10;99.90
13205;DHT22;6667;52.634;9.226;2023-04-15T21:39:13;10.20;99.90
13205;DHT22;6667;52.634;9.226;2023-04-15T21:41:40;10.20;99.90
13205;DHT22;6667;52.634;9.226;2023-04-15T21:44:07;10.20;99.90
13205;DHT22;6667;52.634;9.226;2023-04-15T21:46:35;10.20;99.90
13205;DHT22;6667;52.634;9.226;2023-04-15T21:49:03;10.20;99.90
13205;DHT22;6667;52.634;9.226;2023-04-15T21:51:31;10.30;99.90
13205;DHT22;6667;52.634;9.226;2023-04-15T21:53:58;10.20;99.90
13205;DHT22;6667;52.634;9.226;2023-04-15T21:56:26;10.20;99.90
13205;DHT22;6667;52.634;9.226;2023-04-15T21:58:54;10.20;99.90
13205;DHT22;6667;52.634;9.226;2023-04-15T22:01:22;10.20;99.90
13205;DHT22;6667;52.634;9.226;2023-04-15T22:03:49;10.20;99.90
13205;DHT22;6667;52.634;9.226;2023-04-15T22:06:18;10.20;99.90
13205;DHT22;6667;52.634;9.226;2023-04-15T22:08:45;10.10;99.90
13205;DHT22;6667;52.634;9.226;2023-04-15T22:11:18;10.20;99.90
13205;DHT22;6667;52.634;9.226;2023-04-15T22:13:47;10.20;99.90
13205;DHT22;6667;52.634;9.226;2023-04-15T22:16:15;10.20;99.90
13205;DHT22;6667;52.634;9.226;2023-04-15T22:18:42;10.20;99.90
13205;DHT22;6667;52.634;9.226;2023-04-15T22:21:09;10.20;99.90
13205;DHT22;6667;52.634;9.226;2023-04-15T22:23:37;10.20;99.90
13205;DHT22;6667;52.634;9.226;2023-04-15T22:26:05;10.20;99.90
13205;DHT22;6667;52.634;9.226;2023-04-15T22:28:32;10.20;99.90
13205;DHT22;6667;52.634;9.226;2023-04-15T22:30:58;10.10;99.90
13205;DHT22;6667;52.634;9.226;2023-04-15T22:33:26;10.10;99.90
13205;DHT22;6667;52.634;9.226;2023-04-15T22:35:53;10.10;99.90
13205;DHT22;6667;52.634;9.226;2023-04-15T22:38:19;10.10;99.90
13205;DHT22;6667;52.634;9.226;2023-04-15T22:40:47;10.10;99.90
13205;DHT22;6667;52.634;9.226;2023-04-15T22:43:16;10.10;99.90
13205;DHT22;6667;52.634;9.226;2023-04-15T22:45:47;10.10;99.90
13205;DHT22;6667;52.634;9.226;2023-04-15T22:48:14;10.10;99.90
13205;DHT22;6667;52.634;9.226;2023-04-15T22:50:41;10.10;99.90
13205;DHT22;6667;52.634;9.226;2023-04-15T22:53:07;10.00;99.90
13205;DHT22;6667;52.634;9.226;2023-04-15T22:55:34;10.10;99.90
13205;DHT22;6667;52.634;9.226;2023-04-15T22:58:02;10.00;99.90
13205;DHT22;6667;52.634;9.226;2023-04-15T23:00:29;10.00;99.90
13205;DHT22;6667;52.634;9.226;2023-04-15T23:02:55;10.00;99.90
13205;DHT22;6667;52.634;9.226;2023-04-15T23:05:22;10.00;99.90
13205;DHT22;6667;52.634;9.226;2023-04-15T23:07:48;10.00;99.90
13205;DHT22;6667;52.634;9.226;2023-04-15T23:10:15;9.90;99.90
13205;DHT22;6667;52.634;9.226;2023-04-15T23:12:42;9.90;99.90
13205;DHT22;6667;52.634;9.226;2023-04-15T23:15:10;9.90;99.90
13205;DHT22;6667;52.634;9.226;2023-04-15T23:17:37;9.90;99.90
13205;DHT22;6667;52.634;9.226;2023-04-15T23:20:04;9.90;99.90
13205;DHT22;6667;52.634;9.226;2023-04-15T23:22:31;9.90;99.90
13205;DHT22;6667;52.634;9.226;2023-04-15T23:25:01;9.90;99.90
13205;DHT22;6667;52.634;9.226;2023-04-15T23:27:28;9.90;99.90
13205;DHT22;6667;52.634;9.226;2023-04-15T23:29:55;9.80;99.90
13205;DHT22;6667;52.634;9.226;2023-04-15T23:32:23;9.80;99.90
13205;DHT22;6667;52.634;9.226;2023-04-15T23:34:49;9.80;99.90
13205;DHT22;6667;52.634;9.226;2023-04-15T23:37:16;9.80;99.90
13205;DHT22;6667;52.634;9.226;2023-04-15T23:39:43;9.70;99.90
13205;DHT22;6667;52.634;9.226;2023-04-15T23:42:10;9.70;99.90
13205;DHT22;6667;52.634;9.226;2023-04-15T23:44:37;9.70;99.90
13205;DHT22;6667;52.634;9.226;2023-04-15T23:47:03;9.70;99.90
13205;DHT22;6667;52.634;9.226;2023-04-15T23:49:31;9.60;99.90